sensor_id;sensor_type;location;lat;lon;timestamp;pressure;altitude;pressure_sealevel;temperature;humidity
6899;BME280;3488;42.616;23.350;2023-05-20T00:02:22;63251.16;;;12.10;100.00
6899;BME280;3488;42.616;23.350;2023-05-20T00:04:49;63237.25;;;12.02;100.00
6899;BME280;3488;42.616;23.350;2023-05-20T00:07:17;63239.78;;;12.02;100.00
6899;BME280;3488;42.616;23.350;2023-05-20T00:09:44;63236.22;;;12.01;100.00
6899;BME280;3488;42.616;23.350;2023-05-20T00:12:13;63223.78;;;11.89;100.00
6899;BME280;3488;42.616;23.350;2023-05-20T00:14:40;63224.28;;;11.89;100.00
6899;BME280;3488;42.616;23.350;2023-05-20T00:17:07;63220.16;;;11.85;100.00
6899;BME280;3488;42.616;23.350;2023-05-20T00:19:34;63215.53;;;11.83;100.00
6899;BME280;3488;42.616;23.350;2023-05-20T00:22:02;63210.84;;;11.79;100.00
6899;BME280;3488;42.616;23.350;2023-05-20T00:24:29;63224.19;;;11.82;100.00
6899;BME280;3488;42.616;23.350;2023-05-20T00:26:57;63214.47;;;11.80;100.00
6899;BME280;3488;42.616;23.350;2023-05-20T00:29:25;63199.91;;;11.63;100.00
6899;BME280;3488;42.616;23.350;2023-05-20T00:31:53;63191.13;;;11.57;100.00
6899;BME280;3488;42.616;23.350;2023-05-20T00:34:20;63186.47;;;11.52;100.00
6899;BME280;3488;42.616;23.350;2023-05-20T00:36:47;63193.16;;;11.56;100.00
6899;BME280;3488;42.616;23.350;2023-05-20T00:39:14;63196.75;;;11.57;100.00
6899;BME280;3488;42.616;23.350;2023-05-20T00:41:41;63192.16;;;11.58;100.00
6899;BME280;3488;42.616;23.350;2023-05-20T00:44:09;63191.13;;;11.57;100.00
6899;BME280;3488;42.616;23.350;2023-05-20T00:46:38;63195.75;;;11.59;100.00
6899;BME280;3488;42.616;23.350;2023-05-20T00:49:05;63194.66;;;11.55;100.00
6899;BME280;3488;42.616;23.350;2023-05-20T00:51:32;63183.41;;;11.52;100.00
6899;BME280;3488;42.616;23.350;2023-05-20T00:54:00;63187.94;;;11.49;100.00
6899;BME280;3488;42.616;23.350;2023-05-20T00:56:27;63186.38;;;11.47;100.00
6899;BME280;3488;42.616;23.350;2023-05-20T00:58:56;63181.25;;;11.45;100.00
6899;BME280;3488;42.616;23.350;2023-05-20T01:01:24;63177.69;;;11.46;100.00
6899;BME280;3488;42.616;23.350;2023-05-20T01:03:53;63181.75;;;11.45;100.00
6899;BME280;3488;42.616;23.350;2023-05-20T01:06:20;63186.41;;;11.50;100.00
6899;BME280;3488;42.616;23.350;2023-05-20T01:08:47;63183.31;;;11.47;100.00
6899;BME280;3488;42.616;23.350;2023-05-20T01:11:24;63175.00;;;11.39;100.00
6899;BME280;3488;42.616;23.350;2023-05-20T01:13:56;63170.41;;;11.37;100.00
6899;BME280;3488;42.616;23.350;2023-05-20T01:16:25;63179.72;;;11.46;100.00
6899;BME280;3488;42.616;23.350;2023-05-20T01:18:55;63170.91;;;11.37;100.00
6899;BME280;3488;42.616;23.350;2023-05-20T01:21:23;63189.50;;;11.50;100.00
6899;BME280;3488;42.616;23.350;2023-05-20T01:23:52;63183.31;;;11.47;100.00
6899;BME280;3488;42.616;23.350;2023-05-20T01:26:19;63183.31;;;11.47;100.00
6899;BME280;3488;42.616;23.350;2023-05-20T01:28:51;63185.34;;;11.46;100.00
6899;BME280;3488;42.616;23.350;2023-05-20T01:31:22;63177.66;;;11.44;100.00
6899;BME280;3488;42.616;23.350;2023-05-20T01:33:54;63188.03;;;11.54;100.00
6899;BME280;3488;42.616;23.350;2023-05-20T01:36:23;63178.16;;;11.44;100.00
6899;BME280;3488;42.616;23.350;2023-05-20T01:38:53;63182.84;;;11.49;100.00
6899;BME280;3488;42.616;23.350;2023-05-20T01:41:22;63182.28;;;11.46;100.00
6899;BME280;3488;42.616;23.350;2023-05-20T01:43:51;63179.72;;;11.46;100.00
6899;BME280;3488;42.616;23.350;2023-05-20T01:46:18;63167.78;;;11.32;100.00
6899;BME280;3488;42.616;23.350;2023-05-20T01:48:46;63185.41;;;11.51;100.00
6899;BME280;3488;42.616;23.350;2023-05-20T01:51:13;63194.16;;;11.55;100.00
6899;BME280;3488;42.616;23.350;2023-05-20T01:53:41;63193.19;;;11.59;100.00
6899;BME280;3488;42.616;23.350;2023-05-20T01:56:09;63193.19;;;11.59;100.00
6899;BME280;3488;42.616;23.350;2023-05-20T01:58:37;63192.06;;;11.53;100.00
6899;BME280;3488;42.616;23.350;2023-05-20T02:01:04;63189.53;;;11.53;100.00
6899;BME280;3488;42.616;23.350;2023-05-20T02:03:31;63181.78;;;11.48;100.00
6899;BME280;3488;42.616;23.350;2023-05-20T02:05:58;63185.38;;;11.49;100.00
6899;BME280;3488;42.616;23.350;2023-05-20T02:08:26;63185.34;;;11.46;100.00
6899;BME280;3488;42.616;23.350;2023-05-20T02:10:53;63178.66;;;11.42;100.00
6899;BME280;3488;42.616;23.350;2023-05-20T02:13:22;63172.47;;;11.39;100.00
6899;BME280;3488;42.616;23.350;2023-05-20T02:15:50;63165.78;;;11.35;100.00
6899;BME280;3488;42.616;23.350;2023-05-20T02:18:18;63165.75;;;11.32;100.00
6899;BME280;3488;42.616;23.350;2023-05-20T02:20:46;63168.34;;;11.35;100.00
6899;BME280;3488;42.616;23.350;2023-05-20T02:23:13;63165.22;;;11.32;100.00
6899;BME280;3488;42.616;23.350;2023-05-20T02:25:40;63163.16;;;11.30;100.00
6899;BME280;3488;42.616;23.350;2023-05-20T02:28:07;63162.63;;;11.29;100.00
6899;BME280;3488;42.616;23.350;2023-05-20T02:30:37;63154.91;;;11.24;100.00
6899;BME280;3488;42.616;23.350;2023-05-20T02:33:05;63138.38;;;11.11;100.00
6899;BME280;3488;42.616;23.350;2023-05-20T02:35:35;63140.88;;;11.08;100.00
6899;BME280;3488;42.616;23.350;2023-05-20T02:38:03;63136.19;;;11.01;100.00
6899;BME280;3488;42.616;23.350;2023-05-20T02:40:30;63139.78;;;11.02;100.00
6899;BME280;3488;42.616;23.350;2023-05-20T02:42:58;63134.16;;;11.02;100.00
6899;BME280;3488;42.616;23.350;2023-05-20T02:45:26;63130.50;;;10.96;100.00
6899;BME280;3488;42.616;23.350;2023-05-20T02:47:54;63130.50;;;10.96;100.00
6899;BME280;3488;42.616;23.350;2023-05-20T02:50:21;63137.19;;;11.00;100.00
6899;BME280;3488;42.616;23.350;2023-05-20T02:52:49;63124.84;;;10.93;100.00
6899;BME280;3488;42.616;23.350;2023-05-20T02:55:17;63130.00;;;10.98;100.00
6899;BME280;3488;42.616;23.350;2023-05-20T02:57:45;63139.31;;;11.04;100.00
6899;BME280;3488;42.616;23.350;2023-05-20T03:00:13;63139.34;;;11.07;100.00
6899;BME280;3488;42.616;23.350;2023-05-20T03:02:40;63139.31;;;11.04;100.00
6899;BME280;3488;42.616;23.350;2023-05-20T03:05:09;63150.59;;;11.10;100.00
6899;BME280;3488;42.616;23.350;2023-05-20T03:07:37;63140.47;;;11.13;100.00
6899;BME280;3488;42.616;23.350;2023-05-20T03:10:05;63145.50;;;11.10;100.00
6899;BME280;3488;42.616;23.350;2023-05-20T03:12:32;63152.75;;;11.17;100.00
6899;BME280;3488;42.616;23.350;2023-05-20T03:14:59;63157.91;;;11.20;100.00
6899;BME280;3488;42.616;23.350;2023-05-20T03:17:26;63158.00;;;11.27;100.00
6899;BME280;3488;42.616;23.350;2023-05-20T03:19:53;63167.78;;;11.32;100.00
6899;BME280;3488;42.616;23.350;2023-05-20T03:22:22;63170.41;;;11.37;100.00
6899;BME280;3488;42.616;23.350;2023-05-20T03:24:49;63180.22;;;11.44;100.00
6899;BME280;3488;42.616;23.350;2023-05-20T03:27:18;63180.22;;;11.44;100.00
6899;BME280;3488;42.616;23.350;2023-05-20T03:29:45;63188.97;;;11.50;100.00
6899;BME280;3488;42.616;23.350;2023-05-20T03:32:13;63199.38;;;11.62;100.00
6899;BME280;3488;42.616;23.350;2023-05-20T03:34:40;63200.97;;;11.67;100.00
6899;BME280;3488;42.616;23.350;2023-05-20T03:37:08;63209.81;;;11.75;100.00
6899;BME280;3488;42.616;23.350;2023-05-20T03:39:36;63214.41;;;11.77;100.00
6899;BME280;3488;42.616;23.350;2023-05-20T03:42:04;63222.72;;;11.85;100.00
6899;BME280;3488;42.616;23.350;2023-05-20T03:44:31;63239.28;;;12.01;100.00
6899;BME280;3488;42.616;23.350;2023-05-20T03:46:59;63247.59;;;12.09;100.00
6899;BME280;3488;42.616;23.350;2023-05-20T03:49:26;63258.47;;;12.20;100.00
6899;BME280;3488;42.616;23.350;2023-05-20T03:51:53;63258.53;;;12.25;100.00
6899;BME280;3488;42.616;23.350;2023-05-20T03:54:21;63252.22;;;12.14;100.00
6899;BME280;3488;42.616;23.350;2023-05-20T03:56:49;63266.78;;;12.30;100.00
6899;BME280;3488;42.616;23.350;2023-05-20T03:59:18;63277.63;;;12.38;100.00
6899;BME280;3488;42.616;23.350;2023-05-20T04:01:46;63281.38;;;12.49;100.00
6899;BME280;3488;42.616;23.350;2023-05-20T04:04:14;63295.25;;;12.55;100.00
6899;BME280;3488;42.616;23.350;2023-05-20T04:06:41;63311.34;;;12.71;100.00
6899;BME280;3488;42.616;23.350;2023-05-20T04:09:08;63322.75;;;12.82;100.00
6899;BME280;3488;42.616;23.350;2023-05-20T04:11:40;63335.78;;;13.00;100.00
6899;BME280;3488;42.616;23.350;2023-05-20T04:14:09;63346.69;;;13.10;100.00
6899;BME280;3488;42.616;23.350;2023-05-20T04:16:36;63354.88;;;13.11;100.00
6899;BME280;3488;42.616;23.350;2023-05-20T04:19:03;63350.78;;;13.12;100.00
6899;BME280;3488;42.616;23.350;2023-05-20T04:21:31;63383.47;;;13.43;100.00
6899;BME280;3488;42.616;23.350;2023-05-20T04:23:59;63400.03;;;13.57;100.00
6899;BME280;3488;42.616;23.350;2023-05-20T04:26:26;63407.88;;;13.67;100.00
6899;BME280;3488;42.616;23.350;2023-05-20T04:28:53;63409.41;;;13.68;100.00
6899;BME280;3488;42.616;23.350;2023-05-20T04:31:25;63411.41;;;13.63;100.00
6899;BME280;3488;42.616;23.350;2023-05-20T04:33:52;63437.94;;;13.93;100.00
6899;BME280;3488;42.616;23.350;2023-05-20T04:36:19;63444.69;;;14.00;100.00
6899;BME280;3488;42.616;23.350;2023-05-20T04:38:46;63449.91;;;14.08;100.00
6899;BME280;3488;42.616;23.350;2023-05-20T04:41:14;63448.91;;;14.09;100.00
6899;BME280;3488;42.616;23.350;2023-05-20T04:43:41;63461.28;;;14.16;100.00
6899;BME280;3488;42.616;23.350;2023-05-20T04:46:09;63468.59;;;14.26;100.00
6899;BME280;3488;42.616;23.350;2023-05-20T04:48:38;63489.34;;;14.43;100.00
6899;BME280;3488;42.616;23.350;2023-05-20T04:51:06;63497.16;;;14.51;100.00
6899;BME280;3488;42.616;23.350;2023-05-20T04:53:34;63494.00;;;14.45;100.00
6899;BME280;3488;42.616;23.350;2023-05-20T04:56:01;63494.06;;;14.50;100.00
6899;BME280;3488;42.616;23.350;2023-05-20T04:58:32;63520.00;;;14.75;100.00
6899;BME280;3488;42.616;23.350;2023-05-20T05:00:59;63515.38;;;14.73;100.00
6899;BME280;3488;42.616;23.350;2023-05-20T05:03:30;63520.06;;;14.78;100.00
6899;BME280;3488;42.616;23.350;2023-05-20T05:05:59;63536.66;;;14.91;99.87
6899;BME280;3488;42.616;23.350;2023-05-20T05:08:26;63519.50;;;14.75;98.77
6899;BME280;3488;42.616;23.350;2023-05-20T05:10:54;63509.09;;;14.62;99.02
6899;BME280;3488;42.616;23.350;2023-05-20T05:13:21;63543.91;;;14.98;99.33
6899;BME280;3488;42.616;23.350;2023-05-20T05:15:49;63576.63;;;15.28;99.40
6899;BME280;3488;42.616;23.350;2023-05-20T05:18:23;63589.16;;;15.45;99.60
6899;BME280;3488;42.616;23.350;2023-05-20T05:20:59;63617.22;;;15.69;99.11
6899;BME280;3488;42.616;23.350;2023-05-20T05:23:27;63635.88;;;15.85;98.80
6899;BME280;3488;42.616;23.350;2023-05-20T05:25:54;63658.75;;;16.04;97.82
6899;BME280;3488;42.616;23.350;2023-05-20T05:28:22;63668.13;;;16.16;92.53
6899;BME280;3488;42.616;23.350;2023-05-20T05:30:49;63692.09;;;16.42;89.76
6899;BME280;3488;42.616;23.350;2023-05-20T05:33:17;63708.69;;;16.53;90.72
6899;BME280;3488;42.616;23.350;2023-05-20T05:35:45;63716.00;;;16.62;90.15
6899;BME280;3488;42.616;23.350;2023-05-20T05:38:14;63729.06;;;16.80;78.91
6899;BME280;3488;42.616;23.350;2023-05-20T05:40:41;63755.53;;;17.00;79.83
6899;BME280;3488;42.616;23.350;2023-05-20T05:43:08;63765.50;;;17.15;77.22
6899;BME280;3488;42.616;23.350;2023-05-20T05:45:36;63780.53;;;17.24;71.63
6899;BME280;3488;42.616;23.350;2023-05-20T05:48:03;63801.88;;;17.45;69.31
6899;BME280;3488;42.616;23.350;2023-05-20T05:50:30;63806.59;;;17.52;66.97
6899;BME280;3488;42.616;23.350;2023-05-20T05:52:57;63816.50;;;17.62;64.41
6899;BME280;3488;42.616;23.350;2023-05-20T05:55:26;63823.22;;;17.66;64.88
6899;BME280;3488;42.616;23.350;2023-05-20T05:57:53;63814.91;;;17.60;64.48
6899;BME280;3488;42.616;23.350;2023-05-20T06:00:20;63833.63;;;17.76;65.22
6899;BME280;3488;42.616;23.350;2023-05-20T06:02:47;63839.91;;;17.82;62.91
6899;BME280;3488;42.616;23.350;2023-05-20T06:05:15;63840.44;;;17.85;66.42
6899;BME280;3488;42.616;23.350;2023-05-20T06:07:42;63849.28;;;17.93;66.03
6899;BME280;3488;42.616;23.350;2023-05-20T06:10:10;63839.91;;;17.82;65.58
6899;BME280;3488;42.616;23.350;2023-05-20T06:12:39;63854.00;;;17.98;66.88
6899;BME280;3488;42.616;23.350;2023-05-20T06:15:07;63859.09;;;17.95;65.86
6899;BME280;3488;42.616;23.350;2023-05-20T06:17:34;63861.28;;;18.05;60.99
6899;BME280;3488;42.616;23.350;2023-05-20T06:20:03;63860.22;;;18.04;61.16
6899;BME280;3488;42.616;23.350;2023-05-20T06:22:30;63859.72;;;18.03;63.45
6899;BME280;3488;42.616;23.350;2023-05-20T06:24:57;63880.00;;;18.20;65.10
6899;BME280;3488;42.616;23.350;2023-05-20T06:27:27;63890.97;;;18.33;63.42
6899;BME280;3488;42.616;23.350;2023-05-20T06:29:56;63901.91;;;18.41;61.87
6899;BME280;3488;42.616;23.350;2023-05-20T06:32:23;63899.81;;;18.39;61.11
6899;BME280;3488;42.616;23.350;2023-05-20T06:34:50;63906.09;;;18.48;60.06
6899;BME280;3488;42.616;23.350;2023-05-20T06:37:17;63933.66;;;18.70;61.42
6899;BME280;3488;42.616;23.350;2023-05-20T06:39:44;63943.59;;;18.82;61.04
6899;BME280;3488;42.616;23.350;2023-05-20T06:42:15;63943.09;;;18.84;60.73
6899;BME280;3488;42.616;23.350;2023-05-20T06:44:43;63962.38;;;19.02;60.76
6899;BME280;3488;42.616;23.350;2023-05-20T06:47:13;63971.22;;;19.11;59.77
6899;BME280;3488;42.616;23.350;2023-05-20T06:49:40;63988.41;;;19.25;57.85
6899;BME280;3488;42.616;23.350;2023-05-20T06:52:07;63983.72;;;19.20;60.56
6899;BME280;3488;42.616;23.350;2023-05-20T06:54:36;63996.78;;;19.33;60.50
6899;BME280;3488;42.616;23.350;2023-05-20T06:57:06;64011.41;;;19.49;60.62
6899;BME280;3488;42.616;23.350;2023-05-20T06:59:34;64020.75;;;19.56;57.67
6899;BME280;3488;42.616;23.350;2023-05-20T07:02:02;64020.25;;;19.55;55.85
6899;BME280;3488;42.616;23.350;2023-05-20T07:04:31;63991.06;;;19.30;55.86
6899;BME280;3488;42.616;23.350;2023-05-20T07:07:00;63995.75;;;19.32;58.44
6899;BME280;3488;42.616;23.350;2023-05-20T07:09:27;64011.88;;;19.45;58.03
6899;BME280;3488;42.616;23.350;2023-05-20T07:11:54;64010.84;;;19.44;58.56
6899;BME280;3488;42.616;23.350;2023-05-20T07:14:22;64022.88;;;19.61;58.07
6899;BME280;3488;42.616;23.350;2023-05-20T07:16:49;64029.09;;;19.64;56.08
6899;BME280;3488;42.616;23.350;2023-05-20T07:19:19;64052.56;;;19.87;54.90
6899;BME280;3488;42.616;23.350;2023-05-20T07:21:47;64027.03;;;19.62;54.45
6899;BME280;3488;42.616;23.350;2023-05-20T07:24:15;64016.09;;;19.51;56.71
6899;BME280;3488;42.616;23.350;2023-05-20T07:26:43;64028.59;;;19.66;57.81
6899;BME280;3488;42.616;23.350;2023-05-20T07:29:10;64052.06;;;19.86;57.09
6899;BME280;3488;42.616;23.350;2023-05-20T07:31:38;64025.97;;;19.59;53.63
6899;BME280;3488;42.616;23.350;2023-05-20T07:34:05;64019.75;;;19.58;55.40
6899;BME280;3488;42.616;23.350;2023-05-20T07:36:33;64045.28;;;19.80;55.79
6899;BME280;3488;42.616;23.350;2023-05-20T07:39:02;64059.81;;;19.86;54.11
6899;BME280;3488;42.616;23.350;2023-05-20T07:41:30;64062.44;;;19.91;57.18
6899;BME280;3488;42.616;23.350;2023-05-20T07:43:57;64063.53;;;19.97;55.06
6899;BME280;3488;42.616;23.350;2023-05-20T07:46:24;64084.44;;;20.20;54.52
6899;BME280;3488;42.616;23.350;2023-05-20T07:48:51;64089.66;;;20.25;54.22
6899;BME280;3488;42.616;23.350;2023-05-20T07:51:18;64108.44;;;20.43;54.19
6899;BME280;3488;42.616;23.350;2023-05-20T07:53:46;64113.09;;;20.45;52.05
6899;BME280;3488;42.616;23.350;2023-05-20T07:56:15;64128.75;;;20.57;53.34
6899;BME280;3488;42.616;23.350;2023-05-20T07:58:42;64143.91;;;20.72;54.75
6899;BME280;3488;42.616;23.350;2023-05-20T08:01:09;64148.09;;;20.79;53.76
6899;BME280;3488;42.616;23.350;2023-05-20T08:03:36;64122.50;;;20.51;52.54
6899;BME280;3488;42.616;23.350;2023-05-20T08:06:04;64113.63;;;20.43;52.40
6899;BME280;3488;42.616;23.350;2023-05-20T08:08:31;64121.47;;;20.55;52.97
6899;BME280;3488;42.616;23.350;2023-05-20T08:10:59;64122.50;;;20.51;53.14
6899;BME280;3488;42.616;23.350;2023-05-20T08:13:29;64118.34;;;20.50;53.55
6899;BME280;3488;42.616;23.350;2023-05-20T08:15:57;64139.22;;;20.70;54.76
6899;BME280;3488;42.616;23.350;2023-05-20T08:18:27;64159.06;;;20.89;55.26
6899;BME280;3488;42.616;23.350;2023-05-20T08:20:54;64158.53;;;20.89;54.37
6899;BME280;3488;42.616;23.350;2023-05-20T08:23:23;64163.25;;;20.96;55.20
6899;BME280;3488;42.616;23.350;2023-05-20T08:25:51;64164.28;;;20.94;53.53
6899;BME280;3488;42.616;23.350;2023-05-20T08:28:21;64168.97;;;20.99;55.89
6899;BME280;3488;42.616;23.350;2023-05-20T08:30:52;64159.06;;;20.92;53.88
6899;BME280;3488;42.616;23.350;2023-05-20T08:33:41;64149.16;;;20.85;55.19
6899;BME280;3488;42.616;23.350;2023-05-20T08:36:10;64153.84;;;20.84;57.26
6899;BME280;3488;42.616;23.350;2023-05-20T08:38:51;64169.47;;;20.97;55.10
6899;BME280;3488;42.616;23.350;2023-05-20T08:41:18;64162.22;;;20.95;55.65
6899;BME280;3488;42.616;23.350;2023-05-20T08:43:47;64169.47;;;20.97;54.58
6899;BME280;3488;42.616;23.350;2023-05-20T08:46:17;64125.66;;;20.59;53.43
6899;BME280;3488;42.616;23.350;2023-05-20T08:48:45;64139.72;;;20.68;53.97
6899;BME280;3488;42.616;23.350;2023-05-20T08:51:15;64128.25;;;20.59;53.93
6899;BME280;3488;42.616;23.350;2023-05-20T08:53:43;64133.00;;;20.72;53.33
6899;BME280;3488;42.616;23.350;2023-05-20T08:56:10;64143.91;;;20.72;52.54
6899;BME280;3488;42.616;23.350;2023-05-20T08:58:39;64146.50;;;20.75;53.54
6899;BME280;3488;42.616;23.350;2023-05-20T09:01:07;64148.13;;;20.81;51.99
6899;BME280;3488;42.616;23.350;2023-05-20T09:03:35;64112.59;;;20.44;55.53
6899;BME280;3488;42.616;23.350;2023-05-20T09:06:04;64130.34;;;20.61;54.42
6899;BME280;3488;42.616;23.350;2023-05-20T09:08:33;64140.81;;;20.74;53.67
6899;BME280;3488;42.616;23.350;2023-05-20T09:11:01;64139.72;;;20.68;52.91
6899;BME280;3488;42.616;23.350;2023-05-20T09:13:29;64152.75;;;20.78;54.78
6899;BME280;3488;42.616;23.350;2023-05-20T09:15:59;64169.00;;;21.01;52.60
6899;BME280;3488;42.616;23.350;2023-05-20T09:18:26;64183.59;;;21.13;52.24
6899;BME280;3488;42.616;23.350;2023-05-20T09:20:55;64180.50;;;21.15;50.51
6899;BME280;3488;42.616;23.350;2023-05-20T09:23:23;64189.88;;;21.19;50.30
6899;BME280;3488;42.616;23.350;2023-05-20T09:25:52;64205.00;;;21.33;51.83
6899;BME280;3488;42.616;23.350;2023-05-20T09:28:21;64212.28;;;21.35;51.43
6899;BME280;3488;42.616;23.350;2023-05-20T09:30:48;64210.22;;;21.36;53.84
6899;BME280;3488;42.616;23.350;2023-05-20T09:33:16;64245.25;;;21.74;52.28
6899;BME280;3488;42.616;23.350;2023-05-20T09:35:44;64270.84;;;21.97;51.03
6899;BME280;3488;42.616;23.350;2023-05-20T09:38:13;64300.06;;;22.20;50.33
6899;BME280;3488;42.616;23.350;2023-05-20T09:40:42;64268.28;;;21.97;48.99
6899;BME280;3488;42.616;23.350;2023-05-20T09:43:10;64287.56;;;22.10;49.17
6899;BME280;3488;42.616;23.350;2023-05-20T09:45:38;64281.81;;;22.05;49.52
6899;BME280;3488;42.616;23.350;2023-05-20T09:48:08;64317.88;;;22.39;49.01
6899;BME280;3488;42.616;23.350;2023-05-20T09:50:38;64320.47;;;22.42;49.87
6899;BME280;3488;42.616;23.350;2023-05-20T09:53:06;64292.81;;;22.23;48.54
6899;BME280;3488;42.616;23.350;2023-05-20T09:55:37;64286.00;;;22.11;49.32
6899;BME280;3488;42.616;23.350;2023-05-20T09:58:04;64273.47;;;21.99;48.30
6899;BME280;3488;42.616;23.350;2023-05-20T10:00:31;64240.50;;;21.65;47.96
6899;BME280;3488;42.616;23.350;2023-05-20T10:02:59;64212.31;;;21.40;48.04
6899;BME280;3488;42.616;23.350;2023-05-20T10:05:28;64197.19;;;21.28;51.17
6899;BME280;3488;42.616;23.350;2023-05-20T10:08:36;64169.00;;;21.01;51.77
6899;BME280;3488;42.616;23.350;2023-05-20T10:11:12;64136.09;;;20.67;52.81
6899;BME280;3488;42.616;23.350;2023-05-20T10:13:58;64163.28;;;20.98;54.24
6899;BME280;3488;42.616;23.350;2023-05-20T10:16:37;64203.44;;;21.29;51.15
6899;BME280;3488;42.616;23.350;2023-05-20T10:19:11;64195.59;;;21.22;50.93
6899;BME280;3488;42.616;23.350;2023-05-20T10:21:56;64174.72;;;21.04;50.80
6899;BME280;3488;42.616;23.350;2023-05-20T10:24:28;64193.50;;;21.20;50.13
6899;BME280;3488;42.616;23.350;2023-05-20T10:27:00;64229.06;;;21.59;51.54
6899;BME280;3488;42.616;23.350;2023-05-20T10:29:28;64254.63;;;21.78;50.59
6899;BME280;3488;42.616;23.350;2023-05-20T10:31:55;64241.56;;;21.66;47.70
6899;BME280;3488;42.616;23.350;2023-05-20T10:34:22;64220.66;;;21.46;48.51
6899;BME280;3488;42.616;23.350;2023-05-20T10:36:59;64200.28;;;21.24;48.52
6899;BME280;3488;42.616;23.350;2023-05-20T10:39:27;64214.94;;;21.43;49.02
6899;BME280;3488;42.616;23.350;2023-05-20T10:42:06;64231.66;;;21.59;49.68
6899;BME280;3488;42.616;23.350;2023-05-20T10:44:41;64213.88;;;21.39;47.60
6899;BME280;3488;42.616;23.350;2023-05-20T10:47:08;64211.78;;;21.37;45.59
6899;BME280;3488;42.616;23.350;2023-05-20T10:49:40;64226.94;;;21.54;48.27
6899;BME280;3488;42.616;23.350;2023-05-20T10:52:08;64248.91;;;21.75;48.13
6899;BME280;3488;42.616;23.350;2023-05-20T10:54:42;64267.19;;;21.91;46.43
6899;BME280;3488;42.616;23.350;2023-05-20T10:57:11;64243.16;;;21.72;46.30
6899;BME280;3488;42.616;23.350;2023-05-20T10:59:41;64222.22;;;21.47;45.92
6899;BME280;3488;42.616;23.350;2023-05-20T11:02:14;64192.47;;;21.21;47.13
6899;BME280;3488;42.616;23.350;2023-05-20T11:04:42;64161.72;;;20.97;47.67
6899;BME280;3488;42.616;23.350;2023-05-20T11:07:10;64189.34;;;21.18;49.87
6899;BME280;3488;42.616;23.350;2023-05-20T11:09:37;64218.06;;;21.46;48.80
6899;BME280;3488;42.616;23.350;2023-05-20T11:12:05;64258.84;;;21.85;48.72
6899;BME280;3488;42.616;23.350;2023-05-20T11:14:34;64272.44;;;21.98;47.04
6899;BME280;3488;42.616;23.350;2023-05-20T11:17:01;64325.69;;;22.44;47.74
6899;BME280;3488;42.616;23.350;2023-05-20T11:19:29;64346.09;;;22.64;47.23
6899;BME280;3488;42.616;23.350;2023-05-20T11:21:56;64316.84;;;22.41;48.24
6899;BME280;3488;42.616;23.350;2023-05-20T11:24:25;64277.13;;;22.03;47.60
6899;BME280;3488;42.616;23.350;2023-05-20T11:26:52;64231.66;;;21.59;47.65
6899;BME280;3488;42.616;23.350;2023-05-20T11:29:19;64211.78;;;21.37;48.52
6899;BME280;3488;42.616;23.350;2023-05-20T11:31:49;64205.03;;;21.36;48.98
6899;BME280;3488;42.616;23.350;2023-05-20T11:34:19;64196.66;;;21.25;48.03
6899;BME280;3488;42.616;23.350;2023-05-20T11:36:47;64173.69;;;21.03;49.13
6899;BME280;3488;42.616;23.350;2023-05-20T11:39:15;64164.78;;;20.92;49.77
6899;BME280;3488;42.616;23.350;2023-05-20T11:41:43;64142.34;;;20.71;50.64
6899;BME280;3488;42.616;23.350;2023-05-20T11:44:11;64165.84;;;20.96;49.88
6899;BME280;3488;42.616;23.350;2023-05-20T11:46:42;64196.09;;;21.20;49.25
6899;BME280;3488;42.616;23.350;2023-05-20T11:49:12;64136.63;;;20.70;48.47
6899;BME280;3488;42.616;23.350;2023-05-20T11:51:39;64130.88;;;20.62;49.82
6899;BME280;3488;42.616;23.350;2023-05-20T11:54:07;64158.00;;;20.88;52.04
6899;BME280;3488;42.616;23.350;2023-05-20T11:56:36;64150.75;;;20.86;52.72
6899;BME280;3488;42.616;23.350;2023-05-20T11:59:04;64155.84;;;20.79;53.37
6899;BME280;3488;42.616;23.350;2023-05-20T12:01:33;64144.47;;;20.78;51.77
6899;BME280;3488;42.616;23.350;2023-05-20T12:04:03;64126.19;;;20.60;50.76
6899;BME280;3488;42.616;23.350;2023-05-20T12:06:32;64095.94;;;20.31;52.62
6899;BME280;3488;42.616;23.350;2023-05-20T12:09:03;64076.09;;;20.12;53.02
6899;BME280;3488;42.616;23.350;2023-05-20T12:11:32;64094.84;;;20.25;51.22
6899;BME280;3488;42.616;23.350;2023-05-20T12:14:00;64067.72;;;20.01;52.55
6899;BME280;3488;42.616;23.350;2023-05-20T12:16:27;64041.13;;;19.78;54.41
6899;BME280;3488;42.616;23.350;2023-05-20T12:18:54;64048.91;;;19.81;55.53
6899;BME280;3488;42.616;23.350;2023-05-20T12:21:21;64039.03;;;19.74;55.86
6899;BME280;3488;42.616;23.350;2023-05-20T12:23:49;64021.28;;;19.57;55.68
6899;BME280;3488;42.616;23.350;2023-05-20T12:26:22;64007.72;;;19.41;56.29
6899;BME280;3488;42.616;23.350;2023-05-20T12:28:50;64006.69;;;19.45;56.91
6899;BME280;3488;42.616;23.350;2023-05-20T12:31:19;63979.00;;;19.13;55.68
6899;BME280;3488;42.616;23.350;2023-05-20T12:33:46;63980.56;;;19.15;55.45
6899;BME280;3488;42.616;23.350;2023-05-20T12:36:14;63970.16;;;19.05;56.42
6899;BME280;3488;42.616;23.350;2023-05-20T12:38:41;63954.03;;;18.94;57.14
6899;BME280;3488;42.616;23.350;2023-05-20T12:41:10;63938.31;;;18.72;59.65
6899;BME280;3488;42.616;23.350;2023-05-20T12:43:37;63900.38;;;18.42;59.83
6899;BME280;3488;42.616;23.350;2023-05-20T12:46:04;63894.63;;;18.37;60.02
6899;BME280;3488;42.616;23.350;2023-05-20T12:48:32;63890.44;;;18.33;59.84
6899;BME280;3488;42.616;23.350;2023-05-20T12:50:59;63892.50;;;18.32;59.82
6899;BME280;3488;42.616;23.350;2023-05-20T12:53:26;63894.03;;;18.29;61.35
6899;BME280;3488;42.616;23.350;2023-05-20T12:55:54;63900.81;;;18.38;60.90
6899;BME280;3488;42.616;23.350;2023-05-20T12:58:23;63898.75;;;18.38;61.30
6899;BME280;3488;42.616;23.350;2023-05-20T13:00:51;63959.25;;;18.99;60.57
6899;BME280;3488;42.616;23.350;2023-05-20T13:03:18;64019.75;;;19.58;58.51
6899;BME280;3488;42.616;23.350;2023-05-20T13:05:45;64081.78;;;20.15;59.34
6899;BME280;3488;42.616;23.350;2023-05-20T13:08:12;64092.25;;;20.25;57.89
6899;BME280;3488;42.616;23.350;2023-05-20T13:10:39;64152.81;;;20.86;54.75
6899;BME280;3488;42.616;23.350;2023-05-20T13:13:06;64147.06;;;20.80;52.63
6899;BME280;3488;42.616;23.350;2023-05-20T13:15:35;64176.28;;;21.06;51.50